createdAt,value
2023-03-03T00:00:47.161Z,24.10
2023-03-03T00:03:18.626Z,24.70
2023-03-03T00:05:45.451Z,24.90
2023-03-03T00:08:12.268Z,23.93
2023-03-03T00:10:39.744Z,24.80
2023-03-03T00:13:19.381Z,23.50
2023-03-03T00:15:47.265Z,23.77
2023-03-03T00:18:24.901Z,23.17
2023-03-03T00:21:03.166Z,23.73
2023-03-03T00:23:42.553Z,22.87
2023-03-03T00:26:23.469Z,24.37
2023-03-03T00:28:52.084Z,23.17
2023-03-03T00:31:21.964Z,24.00
2023-03-03T00:33:55.616Z,25.50
2023-03-03T00:36:31.683Z,24.90
2023-03-03T00:39:24.848Z,24.53
2023-03-03T00:41:51.831Z,23.97
2023-03-03T00:44:25.693Z,23.73
2023-03-03T00:46:54.168Z,23.63
2023-03-03T00:49:27.098Z,23.17
2023-03-03T00:51:54.589Z,24.57
2023-03-03T00:54:21.363Z,23.00
2023-03-03T00:56:48.026Z,24.37
2023-03-03T00:59:14.670Z,22.73
2023-03-03T01:01:41.378Z,23.00
2023-03-03T01:04:08.023Z,24.03
2023-03-03T01:06:35.020Z,22.37
2023-03-03T01:09:01.656Z,21.43
2023-03-03T01:11:29.217Z,23.80
2023-03-03T01:13:57.021Z,22.33
2023-03-03T01:16:23.867Z,23.50
2023-03-03T01:18:50.632Z,23.70
2023-03-03T01:21:17.421Z,22.87
2023-03-03T01:23:44.447Z,23.10
2023-03-03T01:26:11.175Z,23.73
2023-03-03T01:28:37.850Z,23.37
2023-03-03T01:31:06.274Z,22.83
2023-03-03T01:33:34.663Z,23.33
2023-03-03T01:36:01.698Z,22.40
2023-03-03T01:38:28.676Z,22.70
2023-03-03T01:40:59.392Z,23.33
2023-03-03T01:43:31.089Z,22.40
2023-03-03T01:45:57.791Z,23.27
2023-03-03T01:48:38.667Z,22.50
2023-03-03T01:51:25.241Z,20.13
2023-03-03T01:53:56.496Z,20.77
2023-03-03T01:56:23.722Z,21.27
2023-03-03T01:58:55.121Z,22.77
2023-03-03T02:01:25.835Z,24.07
2023-03-03T02:03:53.383Z,24.63
2023-03-03T02:06:24.041Z,22.63
2023-03-03T02:09:02.117Z,22.53
2023-03-03T02:11:31.402Z,24.23
2023-03-03T02:13:58.074Z,20.97
2023-03-03T02:16:25.508Z,20.93
2023-03-03T02:18:53.808Z,22.13
2023-03-03T02:21:23.353Z,22.87
2023-03-03T02:24:08.866Z,25.30
2023-03-03T02:26:42.898Z,21.83
2023-03-03T02:29:10.409Z,22.50
2023-03-03T02:31:38.546Z,22.70
2023-03-03T02:34:05.933Z,22.33
2023-03-03T02:36:36.164Z,21.17
2023-03-03T02:39:02.944Z,23.13
2023-03-03T02:41:41.817Z,23.33
2023-03-03T02:44:14.365Z,22.50
2023-03-03T02:46:44.475Z,24.70
2023-03-03T02:49:13.758Z,22.23
2023-03-03T02:51:41.167Z,22.37
2023-03-03T02:54:09.063Z,24.37
2023-03-03T02:56:36.902Z,22.63
2023-03-03T02:59:05.006Z,22.57
2023-03-03T03:01:36.954Z,22.53
2023-03-03T03:04:09.397Z,20.77
2023-03-03T03:06:36.488Z,23.13
2023-03-03T03:09:04.325Z,21.50
2023-03-03T03:11:31.096Z,23.07
2023-03-03T03:13:57.824Z,22.03
2023-03-03T03:16:24.665Z,21.50
2023-03-03T03:18:51.869Z,23.37
2023-03-03T03:21:19.103Z,21.97
2023-03-03T03:23:45.810Z,20.57
2023-03-03T03:26:12.898Z,21.33
2023-03-03T03:28:40.327Z,19.97
2023-03-03T03:31:09.228Z,21.87
2023-03-03T03:33:36.366Z,22.07
2023-03-03T03:36:04.593Z,21.43
2023-03-03T03:38:31.853Z,21.40
2023-03-03T03:40:59.167Z,24.10
2023-03-03T03:43:26.782Z,21.97
2023-03-03T03:45:53.565Z,21.77
2023-03-03T03:48:20.850Z,20.17
2023-03-03T03:50:50.884Z,21.23
2023-03-03T03:53:18.667Z,19.93
2023-03-03T03:55:46.622Z,20.27
2023-03-03T03:58:15.009Z,20.37
2023-03-03T04:00:43.061Z,21.80
2023-03-03T04:03:11.086Z,20.87
2023-03-03T04:05:38.003Z,20.70
2023-03-03T04:08:05.113Z,19.27
2023-03-03T04:10:32.051Z,20.77
2023-03-03T04:12:59.091Z,18.77
2023-03-03T04:15:25.864Z,18.97
2023-03-03T04:17:52.693Z,18.97
2023-03-03T04:20:19.467Z,19.03
2023-03-03T04:22:46.291Z,20.63
2023-03-03T04:25:15.560Z,22.10
2023-03-03T04:27:43.437Z,19.60
2023-03-03T04:30:11.863Z,19.23
2023-03-03T04:32:38.744Z,20.00
2023-03-03T04:35:08.540Z,19.97
2023-03-03T04:37:36.399Z,20.43
2023-03-03T04:40:04.637Z,18.87
2023-03-03T04:42:32.687Z,23.13
2023-03-03T04:44:59.354Z,21.80
2023-03-03T04:47:26.340Z,23.97
2023-03-03T04:49:53.019Z,25.03
2023-03-03T04:52:19.787Z,21.07
2023-03-03T04:54:46.506Z,20.37
2023-03-03T04:57:13.163Z,23.40
2023-03-03T04:59:39.831Z,20.80
2023-03-03T05:02:06.543Z,19.87
2023-03-03T05:04:33.739Z,20.00
2023-03-03T05:07:00.513Z,20.63
2023-03-03T05:09:27.527Z,20.77
2023-03-03T05:11:54.441Z,20.07
2023-03-03T05:14:21.160Z,19.33
2023-03-03T05:16:47.995Z,17.83
2023-03-03T05:19:15.044Z,20.67
2023-03-03T05:21:42.454Z,19.33
2023-03-03T05:24:11.386Z,18.47
2023-03-03T05:26:38.319Z,18.10
2023-03-03T05:29:06.100Z,18.87
2023-03-03T05:31:33.414Z,18.43
2023-03-03T05:34:00.387Z,18.53
2023-03-03T05:36:27.059Z,17.23
2023-03-03T05:38:53.840Z,18.00
2023-03-03T05:41:20.622Z,17.33
2023-03-03T05:43:47.532Z,17.63
2023-03-03T05:46:14.275Z,17.10
2023-03-03T05:48:41.028Z,18.43
2023-03-03T05:51:07.699Z,17.07
2023-03-03T05:53:34.440Z,18.30
2023-03-03T05:56:01.273Z,18.27
2023-03-03T05:58:28.295Z,17.70
2023-03-03T06:00:55.410Z,17.00
2023-03-03T06:03:22.283Z,18.80
2023-03-03T06:05:49.065Z,17.63
2023-03-03T06:08:15.815Z,17.40
2023-03-03T06:10:42.545Z,17.03
2023-03-03T06:13:09.250Z,16.67
2023-03-03T06:15:36.068Z,14.70
2023-03-03T06:18:03.258Z,16.37
2023-03-03T06:20:30.181Z,16.07
2023-03-03T06:22:57.014Z,16.97
2023-03-03T06:25:23.821Z,15.47
2023-03-03T06:27:50.612Z,15.77
2023-03-03T06:30:18.872Z,17.33
2023-03-03T06:32:45.951Z,15.47
2023-03-03T06:35:12.896Z,15.77
2023-03-03T06:37:39.883Z,16.03
2023-03-03T06:40:07.767Z,16.10
2023-03-03T06:42:34.435Z,15.17
2023-03-03T06:45:01.099Z,17.70
2023-03-03T06:47:27.878Z,15.67
2023-03-03T06:49:54.567Z,16.33
2023-03-03T06:52:25.479Z,16.43
2023-03-03T06:54:58.703Z,15.73
2023-03-03T06:57:26.980Z,15.80
2023-03-03T06:59:57.147Z,15.83
2023-03-03T07:02:23.838Z,14.17
2023-03-03T07:04:50.532Z,15.30
2023-03-03T07:07:25.439Z,15.87
2023-03-03T07:09:54.732Z,15.93
2023-03-03T07:12:29.249Z,16.90
2023-03-03T07:15:21.520Z,14.47
2023-03-03T07:17:51.186Z,16.03
2023-03-03T07:20:32.191Z,16.27
2023-03-03T07:22:59.044Z,14.47
2023-03-03T07:25:38.106Z,14.93
2023-03-03T07:28:24.927Z,16.30
2023-03-03T07:30:56.088Z,17.07
2023-03-03T07:33:39.413Z,16.77
2023-03-03T07:36:22.494Z,15.97
2023-03-03T07:38:54.200Z,14.83
2023-03-03T07:41:23.408Z,14.83
2023-03-03T07:43:54.650Z,14.23
2023-03-03T07:46:28.069Z,13.33
2023-03-03T07:48:57.592Z,14.17
2023-03-03T07:51:30.018Z,15.83
2023-03-03T07:54:18.168Z,14.43
2023-03-03T07:56:45.632Z,14.87
2023-03-03T07:59:21.972Z,13.70
2023-03-03T08:01:53.295Z,14.40
2023-03-03T08:04:33.876Z,13.17
2023-03-03T08:07:02.072Z,15.23
2023-03-03T08:09:39.145Z,13.13
2023-03-03T08:12:37.989Z,15.47
2023-03-03T08:15:18.497Z,13.67
2023-03-03T08:17:46.277Z,13.03
2023-03-03T08:20:34.648Z,13.90
2023-03-03T08:23:01.298Z,13.13
2023-03-03T08:25:27.949Z,13.10
2023-03-03T08:27:54.941Z,13.67
2023-03-03T08:30:21.587Z,12.73
2023-03-03T08:32:48.628Z,14.03
2023-03-03T08:35:15.421Z,13.80
2023-03-03T08:37:42.191Z,13.37
2023-03-03T08:40:09.573Z,15.03
2023-03-03T08:42:36.544Z,14.10
2023-03-03T08:45:03.375Z,13.97
2023-03-03T08:47:30.105Z,13.73
2023-03-03T08:49:56.784Z,12.57
2023-03-03T08:52:23.433Z,13.57
2023-03-03T08:54:50.136Z,14.40
2023-03-03T08:57:16.904Z,14.23
2023-03-03T08:59:43.579Z,14.60
2023-03-03T09:02:10.297Z,16.00
2023-03-03T09:04:37.127Z,16.43
2023-03-03T09:07:03.787Z,15.47
2023-03-03T09:09:30.624Z,14.47
2023-03-03T09:12:13.375Z,16.57
2023-03-03T09:14:40.044Z,14.83
2023-03-03T09:17:26.523Z,14.33
2023-03-03T09:19:59.642Z,15.50
2023-03-03T09:22:27.953Z,14.50
2023-03-03T09:24:58.098Z,16.47
2023-03-03T09:27:30.824Z,15.00
2023-03-03T09:30:15.496Z,14.40
2023-03-03T09:32:43.236Z,14.43
2023-03-03T09:35:40.281Z,14.83
2023-03-03T09:38:29.750Z,14.73
2023-03-03T09:41:05.590Z,14.77
2023-03-03T09:43:58.347Z,13.80
2023-03-03T09:46:52.970Z,14.63
2023-03-03T09:49:32.368Z,15.10
2023-03-03T09:52:19.964Z,14.10
2023-03-03T09:55:13.835Z,15.20
2023-03-03T09:58:15.404Z,15.17
2023-03-03T10:00:47.576Z,16.13
2023-03-03T10:03:26.184Z,15.47
2023-03-03T10:06:30.862Z,15.23
2023-03-03T10:09:01.497Z,14.10
2023-03-03T10:11:50.291Z,14.50
2023-03-03T10:14:36.794Z,14.83
2023-03-03T10:17:15.438Z,13.60
2023-03-03T10:20:12.414Z,14.17
2023-03-03T10:23:03.676Z,13.83
2023-03-03T10:25:50.683Z,14.40
2023-03-03T10:28:30.145Z,14.50
2023-03-03T10:31:15.823Z,13.40
2023-03-03T10:33:53.569Z,14.83
2023-03-03T10:36:27.914Z,14.33
2023-03-03T10:39:19.083Z,13.20
2023-03-03T10:41:59.629Z,14.23
2023-03-03T10:44:58.899Z,13.27
2023-03-03T10:47:54.682Z,14.27
2023-03-03T10:50:42.605Z,12.93
2023-03-03T10:53:15.643Z,13.73
2023-03-03T10:55:45.116Z,14.10
2023-03-03T10:58:38.387Z,14.07
2023-03-03T11:01:24.803Z,13.27
2023-03-03T11:04:23.564Z,13.77
2023-03-03T11:07:12.558Z,13.03
2023-03-03T11:10:14.825Z,11.97
2023-03-03T11:13:03.223Z,12.87
2023-03-03T11:15:51.532Z,12.60
2023-03-03T11:18:47.984Z,12.33
2023-03-03T11:21:29.680Z,12.00
2023-03-03T11:23:59.812Z,13.13
2023-03-03T11:26:32.643Z,12.27
2023-03-03T11:29:43.588Z,11.67
2023-03-03T11:32:42.250Z,11.70
2023-03-03T11:35:32.665Z,11.17
2023-03-03T11:38:25.421Z,12.70
2023-03-03T11:41:12.337Z,12.50
2023-03-03T11:43:47.114Z,12.67
2023-03-03T11:46:22.436Z,13.00
2023-03-03T11:49:17.503Z,13.70
2023-03-03T11:52:23.982Z,11.90
2023-03-03T11:54:56.557Z,13.13
2023-03-03T11:57:23.930Z,14.03
2023-03-03T12:00:11.661Z,12.53
2023-03-03T12:03:10.946Z,12.80
2023-03-03T12:05:50.119Z,12.97
2023-03-03T12:08:36.220Z,13.87
2023-03-03T12:11:03.568Z,14.53
2023-03-03T12:13:48.127Z,14.47
2023-03-03T12:16:21.609Z,14.20
2023-03-03T12:18:49.021Z,13.53
2023-03-03T12:21:28.662Z,14.33
2023-03-03T12:24:13.463Z,14.17
2023-03-03T12:26:43.233Z,12.57
2023-03-03T12:29:19.629Z,14.57
2023-03-03T12:31:57.640Z,14.00
2023-03-03T12:34:33.053Z,13.50
2023-03-03T12:37:08.361Z,13.93
2023-03-03T12:39:48.827Z,12.70
2023-03-03T12:42:52.985Z,12.13
2023-03-03T12:45:35.863Z,13.90
2023-03-03T12:48:21.333Z,13.83
2023-03-03T12:50:55.772Z,12.23
2023-03-03T12:53:31.644Z,13.30
2023-03-03T12:56:07.438Z,14.10
2023-03-03T12:58:34.815Z,14.13
2023-03-03T13:01:05.547Z,15.17
2023-03-03T13:04:08.649Z,13.93
2023-03-03T13:06:36.147Z,14.13
2023-03-03T13:09:12.724Z,15.47
2023-03-03T13:11:46.706Z,14.77
2023-03-03T13:14:20.475Z,15.00
2023-03-03T13:16:58.141Z,15.83
2023-03-03T13:19:30.666Z,14.50
2023-03-03T13:22:03.103Z,16.80
2023-03-03T13:24:30.987Z,16.47
2023-03-03T13:27:01.371Z,18.03
2023-03-03T13:29:31.910Z,15.90
2023-03-03T13:32:21.497Z,17.03
2023-03-03T13:34:56.151Z,16.67
2023-03-03T13:37:50.047Z,15.80
2023-03-03T13:40:18.825Z,16.23
2023-03-03T13:42:46.481Z,17.90
2023-03-03T13:45:27.164Z,15.73
2023-03-03T13:48:01.161Z,16.40
2023-03-03T13:50:34.684Z,16.70
2023-03-03T13:53:29.396Z,16.40
2023-03-03T13:56:00.346Z,16.27
2023-03-03T13:58:43.395Z,15.73
2023-03-03T14:01:17.701Z,15.23
2023-03-03T14:03:55.069Z,15.57
2023-03-03T14:06:27.827Z,15.10
2023-03-03T14:09:06.964Z,15.63
2023-03-03T14:11:37.845Z,17.07
2023-03-03T14:14:24.603Z,16.40
2023-03-03T14:17:01.800Z,16.03
2023-03-03T14:19:33.053Z,15.77
2023-03-03T14:22:24.054Z,15.63
2023-03-03T14:24:58.169Z,15.00
2023-03-03T14:27:28.108Z,15.63
2023-03-03T14:29:56.281Z,15.70
2023-03-03T14:32:43.158Z,15.73
2023-03-03T14:35:21.053Z,16.13
2023-03-03T14:37:49.393Z,15.43
2023-03-03T14:40:20.444Z,16.27
2023-03-03T14:42:54.779Z,15.97
2023-03-03T14:45:30.582Z,15.07
2023-03-03T14:47:59.295Z,15.63
2023-03-03T14:51:00.785Z,15.27
2023-03-03T14:53:33.429Z,13.13
2023-03-03T14:56:22.469Z,14.27
2023-03-03T14:58:55.528Z,14.93
2023-03-03T15:01:41.268Z,13.77
2023-03-03T15:04:20.061Z,14.83
2023-03-03T15:06:52.310Z,12.13
2023-03-03T15:09:36.863Z,13.67
2023-03-03T15:12:21.249Z,13.03
2023-03-03T15:14:53.493Z,13.17
2023-03-03T15:17:26.649Z,13.27
2023-03-03T15:20:12.205Z,12.60
2023-03-03T15:23:00.920Z,13.50
2023-03-03T15:25:43.441Z,13.13
2023-03-03T15:28:31.770Z,12.70
2023-03-03T15:31:04.888Z,13.80
2023-03-03T15:33:35.298Z,13.20
2023-03-03T15:36:14.044Z,13.83
2023-03-03T15:38:51.526Z,14.27
2023-03-03T15:41:27.818Z,13.20
2023-03-03T15:44:03.896Z,13.60
2023-03-03T15:46:42.416Z,13.87
2023-03-03T15:49:30.926Z,12.93
2023-03-03T15:52:05.537Z,14.73
2023-03-03T15:54:56.130Z,13.57
2023-03-03T15:57:33.198Z,13.10
2023-03-03T16:00:03.043Z,12.13
2023-03-03T16:02:48.236Z,13.70
2023-03-03T16:05:21.795Z,14.30
2023-03-03T16:08:00.728Z,13.53
2023-03-03T16:10:48.901Z,14.60
2023-03-03T16:13:24.900Z,14.57
2023-03-03T16:16:00.892Z,14.43
2023-03-03T16:18:30.765Z,13.70
2023-03-03T16:21:15.399Z,13.00
2023-03-03T16:23:48.829Z,13.93
2023-03-03T16:26:19.135Z,13.87
2023-03-03T16:28:58.382Z,14.43
2023-03-03T16:31:32.433Z,14.07
2023-03-03T16:34:24.820Z,14.27
2023-03-03T16:36:54.667Z,14.03
2023-03-03T16:39:24.537Z,14.90
2023-03-03T16:42:21.290Z,13.57
2023-03-03T16:45:03.874Z,15.10
2023-03-03T16:47:46.026Z,13.70
2023-03-03T16:50:31.224Z,13.97
2023-03-03T16:53:20.198Z,13.57
2023-03-03T16:56:02.698Z,15.87
2023-03-03T16:58:35.794Z,14.93
2023-03-03T17:01:18.598Z,15.00
2023-03-03T17:04:01.610Z,15.37
2023-03-03T17:06:28.641Z,15.27
2023-03-03T17:08:56.348Z,13.10
2023-03-03T17:11:30.274Z,14.60
2023-03-03T17:14:16.070Z,13.70
2023-03-03T17:16:52.616Z,13.07
2023-03-03T17:19:40.225Z,13.57
2023-03-03T17:22:15.393Z,17.30
2023-03-03T17:24:57.779Z,17.50
2023-03-03T17:27:31.041Z,15.30
2023-03-03T17:30:00.948Z,15.83
2023-03-03T17:32:32.113Z,13.87
2023-03-03T17:34:59.192Z,15.60
2023-03-03T17:37:49.176Z,14.40
2023-03-03T17:40:16.615Z,14.33
2023-03-03T17:42:55.615Z,15.70
2023-03-03T17:45:23.596Z,15.60
2023-03-03T17:47:50.614Z,29.83
2023-03-03T17:50:23.731Z,33.97
2023-03-03T17:53:11.140Z,20.77
2023-03-03T17:55:59.076Z,20.53
2023-03-03T17:58:49.732Z,17.77
2023-03-03T18:01:16.846Z,16.30
2023-03-03T18:04:03.529Z,16.57
2023-03-03T18:06:43.286Z,15.57
2023-03-03T18:09:17.605Z,15.90
2023-03-03T18:11:54.537Z,16.13
2023-03-03T18:14:21.624Z,17.97
2023-03-03T18:17:00.783Z,20.67
2023-03-03T18:19:33.868Z,16.13
2023-03-03T18:22:06.920Z,16.53
2023-03-03T18:24:37.549Z,12.03
2023-03-03T18:27:23.473Z,12.17
2023-03-03T18:30:24.718Z,13.10
2023-03-03T18:32:57.855Z,6.90
2023-03-03T18:35:33.861Z,9.67
2023-03-03T18:38:16.364Z,5.83
2023-03-03T18:40:54.257Z,5.50
2023-03-03T18:43:40.000Z,4.60
2023-03-03T18:46:09.803Z,4.90
2023-03-03T18:49:15.644Z,4.80
2023-03-03T18:51:42.723Z,5.77
2023-03-03T18:54:12.481Z,5.53
2023-03-03T18:56:48.586Z,6.30
2023-03-03T18:59:35.949Z,5.77
2023-03-03T19:02:15.033Z,5.30
2023-03-03T19:04:47.012Z,5.83
2023-03-03T19:07:14.128Z,5.33
2023-03-03T19:09:57.986Z,5.23
2023-03-03T19:12:40.135Z,3.97
2023-03-03T19:15:27.178Z,4.00
2023-03-03T19:17:57.046Z,4.60
2023-03-03T19:20:24.388Z,4.70
2023-03-03T19:23:03.513Z,4.20
2023-03-03T19:25:34.039Z,3.83
2023-03-03T19:28:01.094Z,6.27
2023-03-03T19:30:34.701Z,9.87
2023-03-03T19:33:01.816Z,13.63
2023-03-03T19:35:47.602Z,4.67
2023-03-03T19:38:14.704Z,5.37
2023-03-03T19:40:50.641Z,5.30
2023-03-03T19:43:23.686Z,7.77
2023-03-03T19:45:53.728Z,32.23
2023-03-03T19:48:36.163Z,11.33
2023-03-03T19:51:21.907Z,4.73
2023-03-03T19:53:58.158Z,10.07
2023-03-03T19:56:36.784Z,7.87
2023-03-03T19:59:22.378Z,6.80
2023-03-03T20:02:08.493Z,4.43
2023-03-03T20:04:43.808Z,4.13
2023-03-03T20:07:16.488Z,4.13
2023-03-03T20:09:53.292Z,4.23
2023-03-03T20:12:31.066Z,4.73
2023-03-03T20:15:09.523Z,4.30
2023-03-03T20:17:58.827Z,4.37
2023-03-03T20:20:28.892Z,3.90
2023-03-03T20:23:04.229Z,6.20
2023-03-03T20:25:41.200Z,5.37
2023-03-03T20:28:21.456Z,9.57
2023-03-03T20:30:57.364Z,3.87
2023-03-03T20:33:30.524Z,4.90
2023-03-03T20:36:00.686Z,4.17
2023-03-03T20:38:27.735Z,3.67
2023-03-03T20:41:13.517Z,3.97
2023-03-03T20:43:59.124Z,3.80
2023-03-03T20:46:59.879Z,3.50
2023-03-03T20:49:45.967Z,3.50
2023-03-03T20:52:17.186Z,4.33
2023-03-03T20:55:15.485Z,3.80
2023-03-03T20:57:49.836Z,4.13
2023-03-03T21:00:21.019Z,4.00
2023-03-03T21:03:23.720Z,3.80
2023-03-03T21:06:09.013Z,3.90
2023-03-03T21:08:59.720Z,3.83
2023-03-03T21:11:40.651Z,4.30
2023-03-03T21:14:26.564Z,4.27
2023-03-03T21:16:59.170Z,3.97
2023-03-03T21:19:41.151Z,4.30
2023-03-03T21:22:12.911Z,3.60
2023-03-03T21:24:59.531Z,4.20
2023-03-03T21:27:31.825Z,6.47
2023-03-03T21:30:10.252Z,4.30
2023-03-03T21:32:44.291Z,4.10
2023-03-03T21:35:11.427Z,4.20
2023-03-03T21:37:49.221Z,4.60
2023-03-03T21:40:29.409Z,4.13
2023-03-03T21:42:58.828Z,3.90
2023-03-03T21:45:26.793Z,4.03
2023-03-03T21:47:55.101Z,4.03
2023-03-03T21:50:22.561Z,4.50
2023-03-03T21:52:49.658Z,6.20
2023-03-03T21:55:17.036Z,6.77
2023-03-03T21:57:44.100Z,5.27
2023-03-03T22:00:13.579Z,4.47
2023-03-03T22:02:42.697Z,3.77
2023-03-03T22:05:09.879Z,4.17
2023-03-03T22:07:36.929Z,4.37
2023-03-03T22:10:04.235Z,3.87
2023-03-03T22:12:31.414Z,3.87
2023-03-03T22:15:16.238Z,4.07
2023-03-03T22:18:00.955Z,3.67
2023-03-03T22:20:47.849Z,4.10
2023-03-03T22:23:37.434Z,4.67
2023-03-03T22:26:26.241Z,4.00
2023-03-03T22:29:09.094Z,3.60
2023-03-03T22:31:55.884Z,3.27
2023-03-03T22:34:40.832Z,3.37
2023-03-03T22:37:23.728Z,4.40
2023-03-03T22:39:52.857Z,3.17
2023-03-03T22:42:23.385Z,3.43
2023-03-03T22:44:50.475Z,3.63
2023-03-03T22:47:17.536Z,4.17
2023-03-03T22:49:44.615Z,3.80
2023-03-03T22:52:11.679Z,3.40
2023-03-03T22:54:38.831Z,3.90
2023-03-03T22:57:05.908Z,3.87
2023-03-03T22:59:34.469Z,3.80
2023-03-03T23:02:01.771Z,5.00
2023-03-03T23:04:29.619Z,4.13
2023-03-03T23:06:57.169Z,3.30
2023-03-03T23:09:24.331Z,3.80
2023-03-03T23:11:51.428Z,4.07
2023-03-03T23:14:18.696Z,3.83
2023-03-03T23:16:46.200Z,4.90
2023-03-03T23:19:13.518Z,5.40
2023-03-03T23:21:40.620Z,4.33
2023-03-03T23:24:07.895Z,4.07
2023-03-03T23:26:34.958Z,4.07
2023-03-03T23:29:02.228Z,6.47
2023-03-03T23:31:29.529Z,6.30
2023-03-03T23:33:56.914Z,4.83
2023-03-03T23:36:24.010Z,4.60
2023-03-03T23:38:51.062Z,4.77
2023-03-03T23:41:18.142Z,6.23
2023-03-03T23:43:45.263Z,5.03
2023-03-03T23:46:12.457Z,5.43
2023-03-03T23:48:39.525Z,4.67
2023-03-03T23:51:06.717Z,5.37
2023-03-03T23:53:33.821Z,4.23
2023-03-03T23:56:00.889Z,3.87
2023-03-03T23:58:27.944Z,4.57
